Tinton Falls, New Jersey
Current Conditions -  °F | °C
As of 8:35 AM on Thursday 27 Nov 2014 (Local Time) from KBLM Reporting Station
Overcast Overcast  
Wind Chill: 30°   Ceiling: 4900
Heat Index: 36°   Visibility: 10mi
Dew Point: 28°   Wind: 7mph
Humidity: 75%   Direction: 290°WNW
Pressure: 30"   Gusts: NA
Location:  40.2492°N, 74.0521°W
Report Text: KBLM 271335Z AUTO 29006KT 10SM SCT032 OVC049 02/M02 A3000 RMK AO1
Loading
Personal Weather Stations






























Interactive Weather Map New forecast layout! Learn more

10-Day Weather Forecast

Advertisements
Track Severe Weather on mobile